createdAt,value
2018-09-06T00:01:43.249Z,97743.00
2018-09-06T00:14:05.734Z,97727.00
2018-09-06T00:18:07.951Z,97723.00
2018-09-06T00:22:11.121Z,97728.00
2018-09-06T00:26:13.308Z,97722.00
2018-09-06T00:30:15.535Z,97717.00
2018-09-06T00:34:17.687Z,97711.00
2018-09-06T00:38:19.916Z,97708.00
2018-09-06T00:42:22.265Z,97700.00
2018-09-06T00:46:24.489Z,97709.00
2018-09-06T00:50:27.098Z,97699.00
2018-09-06T00:54:29.280Z,97705.00
2018-09-06T00:58:31.470Z,97699.00
2018-09-06T01:02:33.650Z,97688.00
2018-09-06T01:06:35.841Z,97688.00
2018-09-06T01:10:37.989Z,97694.00
2018-09-06T01:14:40.154Z,97684.00
2018-09-06T01:18:42.368Z,97672.00
2018-09-06T01:31:05.416Z,97675.00
2018-09-06T01:35:07.576Z,97674.00
2018-09-06T01:39:10.700Z,97667.00
2018-09-06T01:43:12.881Z,97666.00
2018-09-06T01:47:15.082Z,97671.00
2018-09-06T01:51:17.247Z,97663.00
2018-09-06T01:55:19.400Z,97664.00
2018-09-06T01:59:21.590Z,97666.00
2018-09-06T02:03:24.035Z,97656.00
2018-09-06T02:07:26.240Z,97658.00
2018-09-06T02:11:28.419Z,97659.00
2018-09-06T02:15:30.707Z,97643.00
2018-09-06T02:19:32.943Z,97650.00
2018-09-06T02:23:35.086Z,97654.00
2018-09-06T02:27:37.362Z,97648.00
2018-09-06T02:31:39.506Z,97648.00
2018-09-06T02:35:41.656Z,97637.00
2018-09-06T02:39:43.848Z,97635.00
2018-09-06T02:43:46.015Z,97635.00
2018-09-06T02:47:53.078Z,97632.00
2018-09-06T02:51:55.242Z,97629.00
2018-09-06T02:55:57.423Z,97623.00
2018-09-06T02:59:59.643Z,97624.00
2018-09-06T03:04:02.155Z,97617.00
2018-09-06T03:08:05.069Z,97612.00
2018-09-06T03:12:08.423Z,97613.00
2018-09-06T03:16:10.575Z,97602.00
2018-09-06T03:20:12.830Z,97606.00
2018-09-06T03:24:15.229Z,97598.00
2018-09-06T03:28:17.410Z,97597.00
2018-09-06T03:32:19.648Z,97591.00
2018-09-06T03:36:21.834Z,97593.00
2018-09-06T03:40:24.056Z,97594.00
2018-09-06T03:44:26.247Z,97591.00
2018-09-06T03:48:28.439Z,97596.00
2018-09-06T03:52:30.627Z,97589.00
2018-09-06T03:56:32.792Z,97583.00
2018-09-06T04:00:35.048Z,97583.00
2018-09-06T04:04:37.230Z,97594.00
2018-09-06T04:08:39.485Z,97595.00
2018-09-06T04:12:41.626Z,97594.00
2018-09-06T04:16:44.386Z,97594.00
2018-09-06T04:20:46.588Z,97594.00
2018-09-06T04:24:48.754Z,97602.00
2018-09-06T04:28:50.985Z,97588.00
2018-09-06T04:32:53.284Z,97601.00
2018-09-06T04:36:55.413Z,97589.00
2018-09-06T04:40:57.609Z,97581.00
2018-09-06T04:44:59.819Z,97589.00
2018-09-06T04:49:03.369Z,97592.00
2018-09-06T04:53:05.586Z,97588.00
2018-09-06T04:57:08.462Z,97595.00
2018-09-06T05:01:10.656Z,97599.00
2018-09-06T05:05:13.311Z,97596.00
2018-09-06T05:09:15.475Z,97595.00
2018-09-06T05:13:17.622Z,97604.00
2018-09-06T05:17:19.789Z,97597.00
2018-09-06T05:21:22.006Z,97601.00
2018-09-06T05:25:24.260Z,97598.00
2018-09-06T05:29:26.464Z,97599.00
2018-09-06T05:33:28.697Z,97594.00
2018-09-06T05:37:30.936Z,97602.00
2018-09-06T05:41:33.155Z,97601.00
2018-09-06T05:45:35.356Z,97602.00
2018-09-06T05:49:37.571Z,97603.00
2018-09-06T05:53:39.744Z,97600.00
2018-09-06T05:57:41.919Z,97597.00
2018-09-06T06:01:44.064Z,97594.00
2018-09-06T06:05:46.401Z,97594.00
2018-09-06T06:09:48.567Z,97581.00
2018-09-06T06:13:50.780Z,97589.00
2018-09-06T06:17:52.963Z,97583.00
2018-09-06T06:21:55.217Z,97588.00
2018-09-06T06:25:57.540Z,97591.00
2018-09-06T06:29:59.743Z,97588.00
2018-09-06T06:34:02.043Z,97596.00
2018-09-06T06:38:04.279Z,97599.00
2018-09-06T06:42:06.521Z,97606.00
2018-09-06T06:46:08.705Z,97606.00
2018-09-06T06:50:10.888Z,97594.00
2018-09-06T06:54:13.301Z,97597.00
2018-09-06T06:58:15.616Z,97595.00
2018-09-06T07:02:17.811Z,97601.00
2018-09-06T07:06:22.329Z,97597.00
2018-09-06T07:10:24.498Z,97603.00
2018-09-06T07:14:26.794Z,97600.00
2018-09-06T07:18:29.500Z,97602.00
2018-09-06T07:22:31.591Z,97588.00
2018-09-06T07:26:34.999Z,97594.00
2018-09-06T07:30:37.452Z,97584.00
2018-09-06T07:34:39.594Z,97591.00
2018-09-06T07:38:41.997Z,97584.00
2018-09-06T07:42:44.236Z,97586.00
2018-09-06T07:46:46.516Z,97580.00
2018-09-06T07:50:48.665Z,97580.00
2018-09-06T07:54:50.869Z,97585.00
2018-09-06T07:58:53.150Z,97596.00
2018-09-06T08:02:55.373Z,97588.00
2018-09-06T08:06:57.588Z,97590.00
2018-09-06T08:10:59.775Z,97598.00
2018-09-06T08:15:01.990Z,97602.00
2018-09-06T08:19:04.344Z,97591.00
2018-09-06T08:23:06.643Z,97590.00
2018-09-06T08:27:08.856Z,97597.00
2018-09-06T08:31:11.058Z,97597.00
2018-09-06T08:35:13.199Z,97591.00
2018-09-06T08:39:15.419Z,97596.00
2018-09-06T08:43:17.652Z,97588.00
2018-09-06T08:47:19.906Z,97583.00
2018-09-06T08:51:22.188Z,97577.00
2018-09-06T08:55:24.459Z,97585.00
2018-09-06T08:59:26.787Z,97590.00
2018-09-06T09:03:29.016Z,97585.00
2018-09-06T09:07:31.257Z,97580.00
2018-09-06T09:11:33.505Z,97580.00
2018-09-06T09:15:35.782Z,97581.00
2018-09-06T09:19:37.984Z,97576.00
2018-09-06T09:23:40.197Z,97571.00
2018-09-06T09:27:43.174Z,97568.00
2018-09-06T09:31:45.504Z,97570.00
2018-09-06T09:35:48.762Z,97573.00
2018-09-06T09:39:51.952Z,97570.00
2018-09-06T09:43:54.159Z,97557.00
2018-09-06T09:47:56.381Z,97557.00
2018-09-06T09:51:58.560Z,97560.00
2018-09-06T09:56:00.754Z,97557.00
2018-09-06T10:00:03.007Z,97546.00
2018-09-06T10:04:10.828Z,97543.00
2018-09-06T10:08:18.615Z,97542.00
2018-09-06T10:12:20.904Z,97537.00
2018-09-06T10:16:23.208Z,97541.00
2018-09-06T10:20:25.403Z,97536.00
2018-09-06T10:24:27.647Z,97538.00
2018-09-06T10:28:30.700Z,97523.00
2018-09-06T10:32:32.994Z,97546.00
2018-09-06T10:36:35.278Z,97540.00
2018-09-06T10:40:37.591Z,97540.00
2018-09-06T10:44:39.755Z,97548.00
2018-09-06T10:48:42.327Z,97539.00
2018-09-06T10:52:44.524Z,97538.00
2018-09-06T10:56:47.169Z,97541.00
2018-09-06T11:00:52.061Z,97534.00
2018-09-06T11:04:54.312Z,97533.00
2018-09-06T11:08:56.527Z,97533.00
2018-09-06T11:12:58.713Z,97532.00
2018-09-06T11:17:00.904Z,97533.00
2018-09-06T11:21:03.478Z,97537.00
2018-09-06T11:25:05.820Z,97540.00
2018-09-06T11:29:08.020Z,97541.00
2018-09-06T11:33:10.296Z,97537.00
2018-09-06T11:37:12.515Z,97534.00
2018-09-06T11:41:14.697Z,97524.00
2018-09-06T11:45:16.979Z,97522.00
2018-09-06T11:49:19.184Z,97510.00
2018-09-06T11:53:21.415Z,97509.00
2018-09-06T11:57:23.697Z,97498.00
2018-09-06T12:01:26.124Z,97497.00
2018-09-06T12:05:28.298Z,97487.00
2018-09-06T12:09:30.518Z,97469.00
2018-09-06T12:13:32.778Z,97482.00
2018-09-06T12:17:35.035Z,97475.00
2018-09-06T12:21:37.290Z,97471.00
2018-09-06T12:25:39.542Z,97466.00
2018-09-06T12:29:41.766Z,97461.00
2018-09-06T12:33:44.196Z,97453.00
2018-09-06T12:37:46.987Z,97447.00
2018-09-06T12:41:49.350Z,97444.00
2018-09-06T12:45:52.090Z,97450.00
2018-09-06T12:49:54.448Z,97443.00
2018-09-06T12:53:57.060Z,97443.00
2018-09-06T12:57:59.259Z,97438.00
2018-09-06T13:02:01.558Z,97438.00
2018-09-06T13:06:05.386Z,97438.00
2018-09-06T13:10:08.031Z,97443.00
2018-09-06T13:14:10.203Z,97444.00
2018-09-06T13:18:12.646Z,97454.00
2018-09-06T13:22:15.016Z,97446.00
2018-09-06T13:26:17.602Z,97450.00
2018-09-06T13:30:20.039Z,97445.00
2018-09-06T13:34:22.761Z,97442.00
2018-09-06T13:38:25.000Z,97449.00
2018-09-06T13:42:27.258Z,97447.00
2018-09-06T13:46:29.508Z,97443.00
2018-09-06T13:50:31.721Z,97439.00
2018-09-06T13:54:33.979Z,97446.00
2018-09-06T13:58:36.871Z,97439.00
2018-09-06T14:02:39.016Z,97439.00
2018-09-06T14:06:41.212Z,97429.00
2018-09-06T14:10:43.379Z,97427.00
2018-09-06T14:14:46.039Z,97425.00
2018-09-06T14:18:48.289Z,97430.00
2018-09-06T14:22:50.570Z,97411.00
2018-09-06T14:26:52.753Z,97402.00
2018-09-06T14:30:54.983Z,97401.00
2018-09-06T14:34:57.183Z,97398.00
2018-09-06T14:38:59.817Z,97395.00
2018-09-06T14:43:02.124Z,97397.00
2018-09-06T14:47:04.929Z,97402.00
2018-09-06T14:51:07.126Z,97395.00
2018-09-06T14:55:09.460Z,97375.00
2018-09-06T14:59:11.683Z,97379.00
2018-09-06T15:03:14.038Z,97371.00
2018-09-06T15:07:16.317Z,97366.00
2018-09-06T15:11:18.536Z,97363.00
2018-09-06T15:15:20.830Z,97359.00
2018-09-06T15:19:23.655Z,97361.00
2018-09-06T15:23:27.532Z,97359.00
2018-09-06T15:27:29.850Z,97360.00
2018-09-06T15:31:32.023Z,97352.00
2018-09-06T15:35:34.588Z,97354.00
2018-09-06T15:39:37.431Z,97351.00
2018-09-06T15:43:39.644Z,97353.00
2018-09-06T15:47:41.846Z,97345.00
2018-09-06T15:51:44.107Z,97342.00
2018-09-06T15:55:56.061Z,97352.00
2018-09-06T16:00:02.087Z,97349.00
2018-09-06T16:04:09.905Z,97345.00
2018-09-06T16:08:14.969Z,97348.00
2018-09-06T16:12:17.211Z,97314.00
2018-09-06T16:16:19.431Z,97357.00
2018-09-06T16:20:21.681Z,97359.00
2018-09-06T16:24:24.232Z,97360.00
2018-09-06T16:28:26.555Z,97348.00
2018-09-06T16:32:28.747Z,97345.00
2018-09-06T16:36:30.965Z,97354.00
2018-09-06T16:40:33.339Z,97359.00
2018-09-06T16:44:36.072Z,97363.00
2018-09-06T16:48:38.391Z,97362.00
2018-09-06T16:52:42.692Z,97366.00
2018-09-06T16:56:46.241Z,97373.00
2018-09-06T17:00:50.494Z,97385.00
2018-09-06T17:04:53.993Z,97388.00
2018-09-06T17:08:56.178Z,97387.00
2018-09-06T17:13:00.447Z,97404.00
2018-09-06T17:17:03.288Z,97396.00
2018-09-06T17:21:05.479Z,97402.00
2018-09-06T17:25:07.725Z,97404.00
2018-09-06T17:29:09.972Z,97398.00
2018-09-06T17:33:12.232Z,97394.00
2018-09-06T17:37:21.059Z,97397.00
2018-09-06T17:41:23.495Z,97393.00
2018-09-06T17:45:25.732Z,97396.00
2018-09-06T17:49:27.914Z,97396.00
2018-09-06T17:53:30.167Z,97409.00
2018-09-06T17:57:32.376Z,97413.00
2018-09-06T18:01:40.154Z,97411.00
2018-09-06T18:05:42.345Z,97400.00
2018-09-06T18:09:44.580Z,97395.00
2018-09-06T18:13:46.807Z,97399.00
2018-09-06T18:17:49.123Z,97404.00
2018-09-06T18:21:51.287Z,97409.00
2018-09-06T18:25:53.508Z,97402.00
2018-09-06T18:29:55.833Z,97404.00
2018-09-06T18:33:58.123Z,97410.00
2018-09-06T18:38:00.351Z,97403.00
2018-09-06T18:42:02.571Z,97390.00
2018-09-06T18:46:04.856Z,97405.00
2018-09-06T18:50:07.128Z,97411.00
2018-09-06T18:54:09.810Z,97407.00
2018-09-06T18:58:12.441Z,97418.00
2018-09-06T19:02:15.316Z,97421.00
2018-09-06T19:06:17.595Z,97429.00
2018-09-06T19:10:19.855Z,97434.00
2018-09-06T19:14:22.047Z,97435.00
2018-09-06T19:18:24.304Z,97436.00
2018-09-06T19:22:26.512Z,97441.00
2018-09-06T19:26:28.945Z,97446.00
2018-09-06T19:30:31.731Z,97448.00
2018-09-06T19:34:34.040Z,97450.00
2018-09-06T19:38:36.716Z,97444.00
2018-09-06T19:42:38.894Z,97451.00
2018-09-06T19:46:41.101Z,97453.00
2018-09-06T19:50:44.162Z,97451.00
2018-09-06T19:54:46.387Z,97453.00
2018-09-06T19:58:48.572Z,97447.00
2018-09-06T20:02:50.818Z,97442.00
2018-09-06T20:06:53.085Z,97444.00
2018-09-06T20:10:55.879Z,97449.00
2018-09-06T20:14:58.088Z,97443.00
2018-09-06T20:19:00.694Z,97440.00
2018-09-06T20:23:02.921Z,97441.00
2018-09-06T20:27:05.300Z,97438.00
2018-09-06T20:31:07.448Z,97445.00
2018-09-06T20:35:09.767Z,97449.00
2018-09-06T20:39:11.970Z,97461.00
2018-09-06T20:43:14.292Z,97453.00
2018-09-06T20:47:16.472Z,97455.00
2018-09-06T20:51:18.670Z,97458.00
2018-09-06T20:55:20.855Z,97460.00
2018-09-06T20:59:23.185Z,97456.00
2018-09-06T21:03:25.288Z,97462.00
2018-09-06T21:07:27.538Z,97468.00
2018-09-06T21:11:29.756Z,97469.00
2018-09-06T21:15:31.979Z,97476.00
2018-09-06T21:19:34.134Z,97471.00
2018-09-06T21:23:36.347Z,97480.00
2018-09-06T21:27:38.483Z,97476.00
2018-09-06T21:31:40.704Z,97488.00
2018-09-06T21:35:42.887Z,97485.00
2018-09-06T21:39:45.108Z,97488.00
2018-09-06T21:43:47.288Z,97484.00
2018-09-06T21:47:49.454Z,97490.00
2018-09-06T21:51:51.654Z,97482.00
2018-09-06T21:55:53.811Z,97486.00
2018-09-06T21:59:55.966Z,97476.00
2018-09-06T22:04:08.184Z,97482.00
2018-09-06T22:08:10.335Z,97486.00
2018-09-06T22:12:17.223Z,97478.00
2018-09-06T22:16:19.589Z,97480.00
2018-09-06T22:20:21.757Z,97489.00
2018-09-06T22:24:23.894Z,97477.00
2018-09-06T22:28:26.096Z,97487.00
2018-09-06T22:32:28.275Z,97478.00
2018-09-06T22:36:30.436Z,97475.00
2018-09-06T22:40:32.587Z,97481.00
2018-09-06T22:44:34.759Z,97474.00
2018-09-06T22:48:36.931Z,97479.00
2018-09-06T22:52:39.071Z,97474.00
2018-09-06T22:56:41.288Z,97477.00
2018-09-06T23:00:43.522Z,97473.00
2018-09-06T23:04:45.730Z,97478.00
2018-09-06T23:08:47.879Z,97481.00
2018-09-06T23:12:50.003Z,97471.00
2018-09-06T23:16:52.142Z,97467.00
2018-09-06T23:20:54.320Z,97468.00
2018-09-06T23:24:56.498Z,97468.00
2018-09-06T23:28:58.643Z,97472.00
2018-09-06T23:33:00.791Z,97476.00
2018-09-06T23:37:03.608Z,97489.00
2018-09-06T23:41:05.856Z,97478.00
2018-09-06T23:45:08.082Z,97484.00
2018-09-06T23:49:10.211Z,97480.00
2018-09-06T23:53:12.375Z,97480.00
2018-09-06T23:57:15.007Z,97482.00
